sensor_id;sensor_type;location;lat;lon;timestamp;P1;durP1;ratioP1;P2;durP2;ratioP2
13252;SDS011;6693;54.370;10.132;2023-07-02T00:00:19;10.32;;;2.42;;
13252;SDS011;6693;54.370;10.132;2023-07-02T00:01:22;11.18;;;1.88;;
13252;SDS011;6693;54.370;10.132;2023-07-02T00:02:23;9.38;;;2.10;;
13252;SDS011;6693;54.370;10.132;2023-07-02T00:03:26;10.60;;;1.83;;
13252;SDS011;6693;54.370;10.132;2023-07-02T00:04:26;8.90;;;1.80;;
13252;SDS011;6693;54.370;10.132;2023-07-02T00:05:30;10.48;;;2.58;;
13252;SDS011;6693;54.370;10.132;2023-07-02T00:06:30;7.85;;;1.67;;
13252;SDS011;6693;54.370;10.132;2023-07-02T00:07:40;8.60;;;2.25;;
13252;SDS011;6693;54.370;10.132;2023-07-02T00:08:40;7.57;;;2.38;;
13252;SDS011;6693;54.370;10.132;2023-07-02T00:09:46;10.18;;;1.65;;
13252;SDS011;6693;54.370;10.132;2023-07-02T00:10:46;13.85;;;2.58;;
13252;SDS011;6693;54.370;10.132;2023-07-02T00:11:50;7.38;;;1.92;;
13252;SDS011;6693;54.370;10.132;2023-07-02T00:12:53;9.80;;;1.63;;
13252;SDS011;6693;54.370;10.132;2023-07-02T00:13:56;7.68;;;1.73;;
13252;SDS011;6693;54.370;10.132;2023-07-02T00:14:57;11.77;;;1.77;;
13252;SDS011;6693;54.370;10.132;2023-07-02T00:16:00;14.57;;;3.20;;
13252;SDS011;6693;54.370;10.132;2023-07-02T00:17:00;12.07;;;2.15;;
13252;SDS011;6693;54.370;10.132;2023-07-02T00:18:04;9.35;;;2.05;;
13252;SDS011;6693;54.370;10.132;2023-07-02T00:19:04;7.22;;;1.80;;
13252;SDS011;6693;54.370;10.132;2023-07-02T00:20:08;9.02;;;2.17;;
13252;SDS011;6693;54.370;10.132;2023-07-02T00:21:14;9.35;;;1.95;;
13252;SDS011;6693;54.370;10.132;2023-07-02T00:22:17;10.30;;;2.35;;
13252;SDS011;6693;54.370;10.132;2023-07-02T00:23:18;10.30;;;2.35;;
13252;SDS011;6693;54.370;10.132;2023-07-02T00:24:21;10.50;;;2.03;;
13252;SDS011;6693;54.370;10.132;2023-07-02T00:25:22;9.25;;;2.08;;
13252;SDS011;6693;54.370;10.132;2023-07-02T00:26:25;7.25;;;1.75;;
13252;SDS011;6693;54.370;10.132;2023-07-02T00:27:26;9.52;;;2.63;;
13252;SDS011;6693;54.370;10.132;2023-07-02T00:28:32;9.05;;;2.08;;
13252;SDS011;6693;54.370;10.132;2023-07-02T00:29:32;9.02;;;2.28;;
13252;SDS011;6693;54.370;10.132;2023-07-02T00:30:36;7.00;;;1.98;;
13252;SDS011;6693;54.370;10.132;2023-07-02T00:31:36;8.60;;;2.13;;
13252;SDS011;6693;54.370;10.132;2023-07-02T00:32:40;8.32;;;1.85;;
13252;SDS011;6693;54.370;10.132;2023-07-02T00:33:40;7.68;;;1.80;;
13252;SDS011;6693;54.370;10.132;2023-07-02T00:34:44;7.30;;;1.80;;
13252;SDS011;6693;54.370;10.132;2023-07-02T00:35:44;7.10;;;1.92;;
13252;SDS011;6693;54.370;10.132;2023-07-02T00:36:47;7.57;;;2.58;;
13252;SDS011;6693;54.370;10.132;2023-07-02T00:37:48;8.85;;;2.08;;
13252;SDS011;6693;54.370;10.132;2023-07-02T00:38:52;7.28;;;2.13;;
13252;SDS011;6693;54.370;10.132;2023-07-02T00:39:52;12.13;;;2.22;;
13252;SDS011;6693;54.370;10.132;2023-07-02T00:40:55;13.43;;;2.50;;
13252;SDS011;6693;54.370;10.132;2023-07-02T00:41:59;11.88;;;2.67;;
13252;SDS011;6693;54.370;10.132;2023-07-02T00:43:04;9.88;;;2.63;;
13252;SDS011;6693;54.370;10.132;2023-07-02T00:44:07;8.20;;;2.15;;
13252;SDS011;6693;54.370;10.132;2023-07-02T00:45:10;10.77;;;2.63;;
13252;SDS011;6693;54.370;10.132;2023-07-02T00:46:11;9.48;;;2.30;;
13252;SDS011;6693;54.370;10.132;2023-07-02T00:47:17;8.80;;;2.30;;
13252;SDS011;6693;54.370;10.132;2023-07-02T00:48:18;9.75;;;2.42;;
13252;SDS011;6693;54.370;10.132;2023-07-02T00:49:21;12.02;;;2.65;;
13252;SDS011;6693;54.370;10.132;2023-07-02T00:50:22;10.88;;;2.28;;
13252;SDS011;6693;54.370;10.132;2023-07-02T00:51:26;11.85;;;2.55;;
13252;SDS011;6693;54.370;10.132;2023-07-02T00:52:27;9.48;;;2.33;;
13252;SDS011;6693;54.370;10.132;2023-07-02T00:53:30;10.27;;;2.30;;
13252;SDS011;6693;54.370;10.132;2023-07-02T00:54:32;8.43;;;2.35;;
13252;SDS011;6693;54.370;10.132;2023-07-02T00:55:36;10.05;;;2.40;;
13252;SDS011;6693;54.370;10.132;2023-07-02T00:56:36;9.70;;;2.75;;
13252;SDS011;6693;54.370;10.132;2023-07-02T00:57:39;10.80;;;2.72;;
13252;SDS011;6693;54.370;10.132;2023-07-02T00:58:41;11.95;;;2.75;;
13252;SDS011;6693;54.370;10.132;2023-07-02T00:59:49;10.15;;;2.33;;
13252;SDS011;6693;54.370;10.132;2023-07-02T01:00:52;9.30;;;2.30;;
13252;SDS011;6693;54.370;10.132;2023-07-02T01:01:56;9.15;;;2.33;;
13252;SDS011;6693;54.370;10.132;2023-07-02T01:02:57;10.52;;;2.83;;
13252;SDS011;6693;54.370;10.132;2023-07-02T01:04:00;10.30;;;2.40;;
13252;SDS011;6693;54.370;10.132;2023-07-02T01:05:02;8.80;;;2.35;;
13252;SDS011;6693;54.370;10.132;2023-07-02T01:06:05;11.90;;;2.30;;
13252;SDS011;6693;54.370;10.132;2023-07-02T01:07:06;13.20;;;2.97;;
13252;SDS011;6693;54.370;10.132;2023-07-02T01:08:11;7.25;;;2.38;;
13252;SDS011;6693;54.370;10.132;2023-07-02T01:09:12;13.02;;;2.75;;
13252;SDS011;6693;54.370;10.132;2023-07-02T01:10:15;11.73;;;3.17;;
13252;SDS011;6693;54.370;10.132;2023-07-02T01:11:15;9.43;;;2.72;;
13252;SDS011;6693;54.370;10.132;2023-07-02T01:12:20;12.23;;;3.20;;
13252;SDS011;6693;54.370;10.132;2023-07-02T01:13:21;9.80;;;2.50;;
13252;SDS011;6693;54.370;10.132;2023-07-02T01:14:28;11.70;;;2.33;;
13252;SDS011;6693;54.370;10.132;2023-07-02T01:15:34;12.98;;;2.30;;
13252;SDS011;6693;54.370;10.132;2023-07-02T01:16:37;10.73;;;2.40;;
13252;SDS011;6693;54.370;10.132;2023-07-02T01:17:39;8.90;;;2.63;;
13252;SDS011;6693;54.370;10.132;2023-07-02T01:18:42;8.75;;;2.42;;
13252;SDS011;6693;54.370;10.132;2023-07-02T01:19:47;12.32;;;2.40;;
13252;SDS011;6693;54.370;10.132;2023-07-02T01:20:52;9.05;;;2.53;;
13252;SDS011;6693;54.370;10.132;2023-07-02T01:21:53;10.73;;;3.25;;
13252;SDS011;6693;54.370;10.132;2023-07-02T01:22:57;10.27;;;2.30;;
13252;SDS011;6693;54.370;10.132;2023-07-02T01:24:02;10.90;;;2.67;;
13252;SDS011;6693;54.370;10.132;2023-07-02T01:25:07;9.43;;;2.33;;
13252;SDS011;6693;54.370;10.132;2023-07-02T01:26:09;13.07;;;2.75;;
13252;SDS011;6693;54.370;10.132;2023-07-02T01:27:12;9.63;;;2.80;;
13252;SDS011;6693;54.370;10.132;2023-07-02T01:28:13;8.75;;;1.98;;
13252;SDS011;6693;54.370;10.132;2023-07-02T01:29:16;10.05;;;2.40;;
13252;SDS011;6693;54.370;10.132;2023-07-02T01:30:18;13.55;;;2.83;;
13252;SDS011;6693;54.370;10.132;2023-07-02T01:31:21;10.73;;;2.55;;
13252;SDS011;6693;54.370;10.132;2023-07-02T01:32:25;12.30;;;2.95;;
13252;SDS011;6693;54.370;10.132;2023-07-02T01:33:28;10.80;;;2.80;;
13252;SDS011;6693;54.370;10.132;2023-07-02T01:34:28;12.40;;;3.08;;
13252;SDS011;6693;54.370;10.132;2023-07-02T01:35:37;11.18;;;2.65;;
13252;SDS011;6693;54.370;10.132;2023-07-02T01:36:38;10.25;;;2.42;;
13252;SDS011;6693;54.370;10.132;2023-07-02T01:37:41;13.13;;;2.78;;
13252;SDS011;6693;54.370;10.132;2023-07-02T01:38:42;10.70;;;3.08;;
13252;SDS011;6693;54.370;10.132;2023-07-02T01:39:45;10.77;;;2.55;;
13252;SDS011;6693;54.370;10.132;2023-07-02T01:40:46;10.88;;;2.60;;
13252;SDS011;6693;54.370;10.132;2023-07-02T01:41:49;9.88;;;2.55;;
13252;SDS011;6693;54.370;10.132;2023-07-02T01:42:50;10.50;;;2.30;;
13252;SDS011;6693;54.370;10.132;2023-07-02T01:43:53;11.02;;;2.60;;
13252;SDS011;6693;54.370;10.132;2023-07-02T01:44:54;9.60;;;2.25;;
13252;SDS011;6693;54.370;10.132;2023-07-02T01:45:57;12.20;;;2.45;;
13252;SDS011;6693;54.370;10.132;2023-07-02T01:48:02;8.85;;;2.25;;
13252;SDS011;6693;54.370;10.132;2023-07-02T01:49:03;11.80;;;2.72;;
13252;SDS011;6693;54.370;10.132;2023-07-02T01:50:06;10.20;;;2.72;;
13252;SDS011;6693;54.370;10.132;2023-07-02T01:51:10;13.57;;;3.25;;
13252;SDS011;6693;54.370;10.132;2023-07-02T01:52:13;10.10;;;3.15;;
13252;SDS011;6693;54.370;10.132;2023-07-02T01:53:14;10.82;;;3.25;;
13252;SDS011;6693;54.370;10.132;2023-07-02T01:54:17;13.85;;;3.20;;
13252;SDS011;6693;54.370;10.132;2023-07-02T01:55:18;12.07;;;3.10;;
13252;SDS011;6693;54.370;10.132;2023-07-02T01:56:21;10.73;;;2.78;;
13252;SDS011;6693;54.370;10.132;2023-07-02T01:57:22;10.90;;;2.60;;
13252;SDS011;6693;54.370;10.132;2023-07-02T01:58:25;7.85;;;2.08;;
13252;SDS011;6693;54.370;10.132;2023-07-02T01:59:26;12.30;;;2.53;;
13252;SDS011;6693;54.370;10.132;2023-07-02T02:00:29;12.05;;;3.70;;
13252;SDS011;6693;54.370;10.132;2023-07-02T02:01:30;12.82;;;2.88;;
13252;SDS011;6693;54.370;10.132;2023-07-02T02:02:33;9.60;;;3.00;;
13252;SDS011;6693;54.370;10.132;2023-07-02T02:03:33;10.68;;;2.92;;
13252;SDS011;6693;54.370;10.132;2023-07-02T02:04:37;11.30;;;3.40;;
13252;SDS011;6693;54.370;10.132;2023-07-02T02:05:37;10.27;;;2.47;;
13252;SDS011;6693;54.370;10.132;2023-07-02T02:06:43;8.25;;;2.85;;
13252;SDS011;6693;54.370;10.132;2023-07-02T02:07:44;11.32;;;3.03;;
13252;SDS011;6693;54.370;10.132;2023-07-02T02:08:47;11.98;;;3.13;;
13252;SDS011;6693;54.370;10.132;2023-07-02T02:09:47;14.00;;;3.53;;
13252;SDS011;6693;54.370;10.132;2023-07-02T02:10:50;14.77;;;4.07;;
13252;SDS011;6693;54.370;10.132;2023-07-02T02:11:51;11.75;;;3.65;;
13252;SDS011;6693;54.370;10.132;2023-07-02T02:12:54;12.85;;;3.50;;
13252;SDS011;6693;54.370;10.132;2023-07-02T02:13:55;10.65;;;3.08;;
13252;SDS011;6693;54.370;10.132;2023-07-02T02:14:58;15.18;;;3.60;;
13252;SDS011;6693;54.370;10.132;2023-07-02T02:15:59;12.60;;;3.35;;
13252;SDS011;6693;54.370;10.132;2023-07-02T02:17:02;12.23;;;2.90;;
13252;SDS011;6693;54.370;10.132;2023-07-02T02:18:03;14.48;;;3.65;;
13252;SDS011;6693;54.370;10.132;2023-07-02T02:19:06;11.73;;;3.22;;
13252;SDS011;6693;54.370;10.132;2023-07-02T02:20:07;14.23;;;3.13;;
13252;SDS011;6693;54.370;10.132;2023-07-02T02:21:11;13.27;;;3.88;;
13252;SDS011;6693;54.370;10.132;2023-07-02T02:22:14;12.52;;;3.00;;
13252;SDS011;6693;54.370;10.132;2023-07-02T02:23:18;11.70;;;3.83;;
13252;SDS011;6693;54.370;10.132;2023-07-02T02:24:18;14.05;;;3.45;;
13252;SDS011;6693;54.370;10.132;2023-07-02T02:25:22;17.33;;;3.60;;
13252;SDS011;6693;54.370;10.132;2023-07-02T02:26:22;16.00;;;3.92;;
13252;SDS011;6693;54.370;10.132;2023-07-02T02:27:26;12.43;;;3.50;;
13252;SDS011;6693;54.370;10.132;2023-07-02T02:28:27;12.73;;;3.70;;
13252;SDS011;6693;54.370;10.132;2023-07-02T02:29:30;11.68;;;3.50;;
13252;SDS011;6693;54.370;10.132;2023-07-02T02:30:31;14.15;;;3.25;;
13252;SDS011;6693;54.370;10.132;2023-07-02T02:31:34;12.07;;;3.33;;
13252;SDS011;6693;54.370;10.132;2023-07-02T02:32:34;13.18;;;3.67;;
13252;SDS011;6693;54.370;10.132;2023-07-02T02:33:38;10.52;;;3.00;;
13252;SDS011;6693;54.370;10.132;2023-07-02T02:34:38;10.50;;;2.97;;
13252;SDS011;6693;54.370;10.132;2023-07-02T02:35:42;11.30;;;3.20;;
13252;SDS011;6693;54.370;10.132;2023-07-02T02:36:42;15.57;;;3.08;;
13252;SDS011;6693;54.370;10.132;2023-07-02T02:37:49;13.90;;;3.95;;
13252;SDS011;6693;54.370;10.132;2023-07-02T02:38:51;11.57;;;3.88;;
13252;SDS011;6693;54.370;10.132;2023-07-02T02:39:54;13.30;;;3.22;;
13252;SDS011;6693;54.370;10.132;2023-07-02T02:40:55;14.85;;;3.50;;
13252;SDS011;6693;54.370;10.132;2023-07-02T02:41:58;17.58;;;3.55;;
13252;SDS011;6693;54.370;10.132;2023-07-02T02:42:59;12.68;;;3.40;;
13252;SDS011;6693;54.370;10.132;2023-07-02T02:44:02;8.25;;;2.63;;
13252;SDS011;6693;54.370;10.132;2023-07-02T02:45:03;13.68;;;3.28;;
13252;SDS011;6693;54.370;10.132;2023-07-02T02:46:07;12.52;;;3.05;;
13252;SDS011;6693;54.370;10.132;2023-07-02T02:47:08;14.27;;;3.15;;
13252;SDS011;6693;54.370;10.132;2023-07-02T02:48:11;13.68;;;3.15;;
13252;SDS011;6693;54.370;10.132;2023-07-02T02:49:12;13.77;;;3.85;;
13252;SDS011;6693;54.370;10.132;2023-07-02T02:50:15;13.57;;;3.55;;
13252;SDS011;6693;54.370;10.132;2023-07-02T02:51:16;10.98;;;3.20;;
13252;SDS011;6693;54.370;10.132;2023-07-02T02:52:19;18.92;;;3.58;;
13252;SDS011;6693;54.370;10.132;2023-07-02T02:53:22;13.43;;;3.20;;
13252;SDS011;6693;54.370;10.132;2023-07-02T02:54:25;14.02;;;3.30;;
13252;SDS011;6693;54.370;10.132;2023-07-02T02:55:26;13.35;;;3.47;;
13252;SDS011;6693;54.370;10.132;2023-07-02T02:56:29;11.93;;;3.17;;
13252;SDS011;6693;54.370;10.132;2023-07-02T02:57:30;15.70;;;3.55;;
13252;SDS011;6693;54.370;10.132;2023-07-02T02:58:33;10.02;;;2.83;;
13252;SDS011;6693;54.370;10.132;2023-07-02T02:59:34;11.10;;;2.88;;
13252;SDS011;6693;54.370;10.132;2023-07-02T03:00:37;15.88;;;3.78;;
13252;SDS011;6693;54.370;10.132;2023-07-02T03:01:38;12.07;;;3.38;;
13252;SDS011;6693;54.370;10.132;2023-07-02T03:02:41;14.52;;;3.22;;
13252;SDS011;6693;54.370;10.132;2023-07-02T03:03:42;14.52;;;3.67;;
13252;SDS011;6693;54.370;10.132;2023-07-02T03:04:46;18.10;;;3.78;;
13252;SDS011;6693;54.370;10.132;2023-07-02T03:05:46;13.02;;;3.10;;
13252;SDS011;6693;54.370;10.132;2023-07-02T03:06:50;15.05;;;3.53;;
13252;SDS011;6693;54.370;10.132;2023-07-02T03:07:51;13.27;;;3.38;;
13252;SDS011;6693;54.370;10.132;2023-07-02T03:08:57;14.20;;;3.40;;
13252;SDS011;6693;54.370;10.132;2023-07-02T03:09:58;14.15;;;3.35;;
13252;SDS011;6693;54.370;10.132;2023-07-02T03:11:01;16.35;;;5.00;;
13252;SDS011;6693;54.370;10.132;2023-07-02T03:12:02;15.45;;;3.80;;
13252;SDS011;6693;54.370;10.132;2023-07-02T03:13:06;13.43;;;3.38;;
13252;SDS011;6693;54.370;10.132;2023-07-02T03:14:06;16.75;;;3.10;;
13252;SDS011;6693;54.370;10.132;2023-07-02T03:15:10;12.13;;;3.10;;
13252;SDS011;6693;54.370;10.132;2023-07-02T03:16:11;12.45;;;3.17;;
13252;SDS011;6693;54.370;10.132;2023-07-02T03:17:14;12.18;;;3.08;;
13252;SDS011;6693;54.370;10.132;2023-07-02T03:18:14;12.05;;;3.15;;
13252;SDS011;6693;54.370;10.132;2023-07-02T03:19:18;12.73;;;3.33;;
13252;SDS011;6693;54.370;10.132;2023-07-02T03:20:18;12.40;;;2.88;;
13252;SDS011;6693;54.370;10.132;2023-07-02T03:21:22;18.58;;;3.10;;
13252;SDS011;6693;54.370;10.132;2023-07-02T03:22:22;15.10;;;3.45;;
13252;SDS011;6693;54.370;10.132;2023-07-02T03:23:25;12.57;;;3.22;;
13252;SDS011;6693;54.370;10.132;2023-07-02T03:24:29;18.42;;;3.13;;
13252;SDS011;6693;54.370;10.132;2023-07-02T03:25:32;13.75;;;2.90;;
13252;SDS011;6693;54.370;10.132;2023-07-02T03:26:32;19.58;;;3.53;;
13252;SDS011;6693;54.370;10.132;2023-07-02T03:27:36;19.52;;;3.95;;
13252;SDS011;6693;54.370;10.132;2023-07-02T03:28:36;16.55;;;3.30;;
13252;SDS011;6693;54.370;10.132;2023-07-02T03:29:39;15.50;;;3.72;;
13252;SDS011;6693;54.370;10.132;2023-07-02T03:30:40;16.98;;;3.63;;
13252;SDS011;6693;54.370;10.132;2023-07-02T03:31:43;13.75;;;3.13;;
13252;SDS011;6693;54.370;10.132;2023-07-02T03:32:44;12.55;;;2.97;;
13252;SDS011;6693;54.370;10.132;2023-07-02T03:33:47;14.93;;;3.20;;
13252;SDS011;6693;54.370;10.132;2023-07-02T03:34:48;8.23;;;3.10;;
13252;SDS011;6693;54.370;10.132;2023-07-02T03:35:51;12.82;;;3.15;;
13252;SDS011;6693;54.370;10.132;2023-07-02T03:36:52;14.63;;;3.30;;
13252;SDS011;6693;54.370;10.132;2023-07-02T03:37:55;20.20;;;4.10;;
13252;SDS011;6693;54.370;10.132;2023-07-02T03:38:57;13.10;;;3.35;;
13252;SDS011;6693;54.370;10.132;2023-07-02T03:40:03;14.20;;;2.85;;
13252;SDS011;6693;54.370;10.132;2023-07-02T03:41:05;13.00;;;3.25;;
13252;SDS011;6693;54.370;10.132;2023-07-02T03:42:08;15.25;;;3.30;;
13252;SDS011;6693;54.370;10.132;2023-07-02T03:43:09;13.05;;;3.70;;
13252;SDS011;6693;54.370;10.132;2023-07-02T03:44:12;11.02;;;3.50;;
13252;SDS011;6693;54.370;10.132;2023-07-02T03:45:13;15.13;;;3.10;;
13252;SDS011;6693;54.370;10.132;2023-07-02T03:46:16;16.23;;;4.22;;
13252;SDS011;6693;54.370;10.132;2023-07-02T03:47:17;14.70;;;3.83;;
13252;SDS011;6693;54.370;10.132;2023-07-02T03:48:21;15.57;;;3.35;;
13252;SDS011;6693;54.370;10.132;2023-07-02T03:49:22;16.13;;;3.25;;
13252;SDS011;6693;54.370;10.132;2023-07-02T03:50:25;11.10;;;2.95;;
13252;SDS011;6693;54.370;10.132;2023-07-02T03:51:25;15.30;;;3.80;;
13252;SDS011;6693;54.370;10.132;2023-07-02T03:52:29;13.88;;;3.42;;
13252;SDS011;6693;54.370;10.132;2023-07-02T03:53:29;16.38;;;3.30;;
13252;SDS011;6693;54.370;10.132;2023-07-02T03:54:32;14.32;;;3.40;;
13252;SDS011;6693;54.370;10.132;2023-07-02T03:55:35;10.98;;;3.05;;
13252;SDS011;6693;54.370;10.132;2023-07-02T03:56:40;12.90;;;3.25;;
13252;SDS011;6693;54.370;10.132;2023-07-02T03:57:41;16.42;;;3.05;;
13252;SDS011;6693;54.370;10.132;2023-07-02T03:58:44;13.63;;;3.28;;
13252;SDS011;6693;54.370;10.132;2023-07-02T03:59:44;16.98;;;3.63;;
13252;SDS011;6693;54.370;10.132;2023-07-02T04:00:48;14.77;;;3.45;;
13252;SDS011;6693;54.370;10.132;2023-07-02T04:01:49;13.15;;;3.30;;
13252;SDS011;6693;54.370;10.132;2023-07-02T04:02:53;15.07;;;3.25;;
13252;SDS011;6693;54.370;10.132;2023-07-02T04:03:54;12.77;;;3.20;;
13252;SDS011;6693;54.370;10.132;2023-07-02T04:04:59;13.98;;;3.55;;
13252;SDS011;6693;54.370;10.132;2023-07-02T04:05:59;12.85;;;3.13;;
13252;SDS011;6693;54.370;10.132;2023-07-02T04:07:05;16.00;;;4.20;;
13252;SDS011;6693;54.370;10.132;2023-07-02T04:08:06;14.60;;;4.18;;
13252;SDS011;6693;54.370;10.132;2023-07-02T04:09:10;18.00;;;3.70;;
13252;SDS011;6693;54.370;10.132;2023-07-02T04:10:10;16.45;;;3.63;;
13252;SDS011;6693;54.370;10.132;2023-07-02T04:11:16;15.90;;;3.38;;
13252;SDS011;6693;54.370;10.132;2023-07-02T04:12:17;14.93;;;3.60;;
13252;SDS011;6693;54.370;10.132;2023-07-02T04:13:20;14.88;;;2.60;;
13252;SDS011;6693;54.370;10.132;2023-07-02T04:14:20;13.82;;;3.05;;
13252;SDS011;6693;54.370;10.132;2023-07-02T04:15:24;11.18;;;2.75;;
13252;SDS011;6693;54.370;10.132;2023-07-02T04:16:26;14.55;;;3.30;;
13252;SDS011;6693;54.370;10.132;2023-07-02T04:17:29;13.00;;;3.10;;
13252;SDS011;6693;54.370;10.132;2023-07-02T04:18:30;10.88;;;3.63;;
13252;SDS011;6693;54.370;10.132;2023-07-02T04:19:33;14.65;;;3.25;;
13252;SDS011;6693;54.370;10.132;2023-07-02T04:20:34;16.55;;;3.17;;
13252;SDS011;6693;54.370;10.132;2023-07-02T04:21:38;12.75;;;3.00;;
13252;SDS011;6693;54.370;10.132;2023-07-02T04:22:39;13.52;;;3.10;;
13252;SDS011;6693;54.370;10.132;2023-07-02T04:23:42;13.45;;;3.40;;
13252;SDS011;6693;54.370;10.132;2023-07-02T04:24:43;10.77;;;2.88;;
13252;SDS011;6693;54.370;10.132;2023-07-02T04:25:48;13.70;;;3.33;;
13252;SDS011;6693;54.370;10.132;2023-07-02T04:26:52;11.20;;;3.05;;
13252;SDS011;6693;54.370;10.132;2023-07-02T04:27:55;12.35;;;2.67;;
13252;SDS011;6693;54.370;10.132;2023-07-02T04:28:57;14.77;;;3.33;;
13252;SDS011;6693;54.370;10.132;2023-07-02T04:30:00;17.48;;;3.35;;
13252;SDS011;6693;54.370;10.132;2023-07-02T04:31:00;12.27;;;3.13;;
13252;SDS011;6693;54.370;10.132;2023-07-02T04:32:04;13.25;;;3.63;;
13252;SDS011;6693;54.370;10.132;2023-07-02T04:33:06;12.98;;;2.83;;
13252;SDS011;6693;54.370;10.132;2023-07-02T04:34:09;13.95;;;3.03;;
13252;SDS011;6693;54.370;10.132;2023-07-02T04:35:10;16.63;;;3.58;;
13252;SDS011;6693;54.370;10.132;2023-07-02T04:36:13;15.95;;;3.53;;
13252;SDS011;6693;54.370;10.132;2023-07-02T04:37:14;11.23;;;3.05;;
13252;SDS011;6693;54.370;10.132;2023-07-02T04:38:17;14.82;;;3.63;;
13252;SDS011;6693;54.370;10.132;2023-07-02T04:39:18;14.73;;;3.35;;
13252;SDS011;6693;54.370;10.132;2023-07-02T04:40:21;16.60;;;3.45;;
13252;SDS011;6693;54.370;10.132;2023-07-02T04:41:22;17.70;;;4.13;;
13252;SDS011;6693;54.370;10.132;2023-07-02T04:42:28;13.02;;;2.67;;
13252;SDS011;6693;54.370;10.132;2023-07-02T04:43:31;12.23;;;3.80;;
13252;SDS011;6693;54.370;10.132;2023-07-02T04:44:35;12.20;;;2.90;;
13252;SDS011;6693;54.370;10.132;2023-07-02T04:45:35;11.32;;;3.30;;
13252;SDS011;6693;54.370;10.132;2023-07-02T04:46:39;14.68;;;3.10;;
13252;SDS011;6693;54.370;10.132;2023-07-02T04:47:40;15.13;;;3.10;;
13252;SDS011;6693;54.370;10.132;2023-07-02T04:48:43;11.88;;;3.00;;
13252;SDS011;6693;54.370;10.132;2023-07-02T04:49:44;13.88;;;2.70;;
13252;SDS011;6693;54.370;10.132;2023-07-02T04:50:47;9.90;;;2.03;;
13252;SDS011;6693;54.370;10.132;2023-07-02T04:51:47;11.85;;;3.28;;
13252;SDS011;6693;54.370;10.132;2023-07-02T04:52:50;13.10;;;3.35;;
13252;SDS011;6693;54.370;10.132;2023-07-02T04:53:51;15.27;;;3.53;;
13252;SDS011;6693;54.370;10.132;2023-07-02T04:54:54;12.02;;;2.90;;
13252;SDS011;6693;54.370;10.132;2023-07-02T04:55:56;13.27;;;3.10;;
13252;SDS011;6693;54.370;10.132;2023-07-02T04:56:59;14.23;;;3.42;;
13252;SDS011;6693;54.370;10.132;2023-07-02T04:58:02;14.65;;;3.05;;
13252;SDS011;6693;54.370;10.132;2023-07-02T04:59:05;11.80;;;3.20;;
13252;SDS011;6693;54.370;10.132;2023-07-02T05:00:07;16.08;;;3.60;;
13252;SDS011;6693;54.370;10.132;2023-07-02T05:01:11;14.88;;;3.22;;
13252;SDS011;6693;54.370;10.132;2023-07-02T05:02:11;11.38;;;2.90;;
13252;SDS011;6693;54.370;10.132;2023-07-02T05:03:14;15.90;;;3.17;;
13252;SDS011;6693;54.370;10.132;2023-07-02T05:04:15;14.13;;;3.15;;
13252;SDS011;6693;54.370;10.132;2023-07-02T05:05:18;11.57;;;2.88;;
13252;SDS011;6693;54.370;10.132;2023-07-02T05:06:19;11.07;;;2.97;;
13252;SDS011;6693;54.370;10.132;2023-07-02T05:07:22;17.13;;;3.30;;
13252;SDS011;6693;54.370;10.132;2023-07-02T05:08:23;13.52;;;2.70;;
13252;SDS011;6693;54.370;10.132;2023-07-02T05:09:26;10.80;;;3.10;;
13252;SDS011;6693;54.370;10.132;2023-07-02T05:10:27;10.68;;;2.70;;
13252;SDS011;6693;54.370;10.132;2023-07-02T05:11:30;11.60;;;3.20;;
13252;SDS011;6693;54.370;10.132;2023-07-02T05:12:30;9.25;;;2.65;;
13252;SDS011;6693;54.370;10.132;2023-07-02T05:13:37;13.40;;;3.10;;
13252;SDS011;6693;54.370;10.132;2023-07-02T05:14:38;10.13;;;2.58;;
13252;SDS011;6693;54.370;10.132;2023-07-02T05:15:41;9.88;;;2.45;;
13252;SDS011;6693;54.370;10.132;2023-07-02T05:16:42;8.85;;;2.50;;
13252;SDS011;6693;54.370;10.132;2023-07-02T05:17:45;13.88;;;2.95;;
13252;SDS011;6693;54.370;10.132;2023-07-02T05:18:46;12.48;;;3.60;;
13252;SDS011;6693;54.370;10.132;2023-07-02T05:19:49;12.32;;;3.47;;
13252;SDS011;6693;54.370;10.132;2023-07-02T05:20:50;8.68;;;2.83;;
13252;SDS011;6693;54.370;10.132;2023-07-02T05:21:53;7.18;;;2.30;;
13252;SDS011;6693;54.370;10.132;2023-07-02T05:22:54;10.63;;;2.58;;
13252;SDS011;6693;54.370;10.132;2023-07-02T05:23:57;8.38;;;2.45;;
13252;SDS011;6693;54.370;10.132;2023-07-02T05:24:58;10.18;;;2.63;;
13252;SDS011;6693;54.370;10.132;2023-07-02T05:26:01;9.05;;;2.30;;
13252;SDS011;6693;54.370;10.132;2023-07-02T05:27:02;11.98;;;2.63;;
13252;SDS011;6693;54.370;10.132;2023-07-02T05:28:05;9.02;;;2.45;;
13252;SDS011;6693;54.370;10.132;2023-07-02T05:29:09;11.05;;;2.63;;
13252;SDS011;6693;54.370;10.132;2023-07-02T05:30:13;11.40;;;2.33;;
13252;SDS011;6693;54.370;10.132;2023-07-02T05:31:14;10.55;;;2.78;;
13252;SDS011;6693;54.370;10.132;2023-07-02T05:32:17;10.57;;;2.55;;
13252;SDS011;6693;54.370;10.132;2023-07-02T05:33:18;7.68;;;2.70;;
13252;SDS011;6693;54.370;10.132;2023-07-02T05:34:22;9.15;;;2.85;;
13252;SDS011;6693;54.370;10.132;2023-07-02T05:35:22;9.98;;;2.90;;
13252;SDS011;6693;54.370;10.132;2023-07-02T05:36:25;10.43;;;2.80;;
13252;SDS011;6693;54.370;10.132;2023-07-02T05:37:26;8.70;;;2.65;;
13252;SDS011;6693;54.370;10.132;2023-07-02T05:38:29;12.40;;;2.92;;
13252;SDS011;6693;54.370;10.132;2023-07-02T05:39:30;8.55;;;3.00;;
13252;SDS011;6693;54.370;10.132;2023-07-02T05:40:33;9.80;;;2.80;;
13252;SDS011;6693;54.370;10.132;2023-07-02T05:41:34;10.07;;;2.83;;
13252;SDS011;6693;54.370;10.132;2023-07-02T05:42:37;10.55;;;2.67;;
13252;SDS011;6693;54.370;10.132;2023-07-02T05:43:38;9.50;;;2.92;;
13252;SDS011;6693;54.370;10.132;2023-07-02T05:44:43;10.85;;;3.63;;
13252;SDS011;6693;54.370;10.132;2023-07-02T05:45:44;10.48;;;3.17;;
13252;SDS011;6693;54.370;10.132;2023-07-02T05:46:48;9.82;;;3.00;;
13252;SDS011;6693;54.370;10.132;2023-07-02T05:47:48;14.85;;;3.17;;
13252;SDS011;6693;54.370;10.132;2023-07-02T05:48:52;11.60;;;3.20;;
13252;SDS011;6693;54.370;10.132;2023-07-02T05:49:56;12.27;;;3.20;;
13252;SDS011;6693;54.370;10.132;2023-07-02T05:50:59;10.55;;;4.15;;
13252;SDS011;6693;54.370;10.132;2023-07-02T05:51:59;12.05;;;3.72;;
13252;SDS011;6693;54.370;10.132;2023-07-02T05:53:03;9.60;;;3.10;;
13252;SDS011;6693;54.370;10.132;2023-07-02T05:54:03;13.43;;;3.10;;
13252;SDS011;6693;54.370;10.132;2023-07-02T05:55:07;10.48;;;3.22;;
13252;SDS011;6693;54.370;10.132;2023-07-02T05:56:10;10.18;;;2.92;;
13252;SDS011;6693;54.370;10.132;2023-07-02T05:57:13;13.38;;;3.65;;
13252;SDS011;6693;54.370;10.132;2023-07-02T05:58:14;10.40;;;3.03;;
13252;SDS011;6693;54.370;10.132;2023-07-02T05:59:17;13.57;;;3.72;;
13252;SDS011;6693;54.370;10.132;2023-07-02T06:00:21;13.00;;;3.42;;
13252;SDS011;6693;54.370;10.132;2023-07-02T06:01:25;12.18;;;4.13;;
13252;SDS011;6693;54.370;10.132;2023-07-02T06:02:25;10.63;;;3.33;;
13252;SDS011;6693;54.370;10.132;2023-07-02T06:03:28;14.60;;;4.97;;
13252;SDS011;6693;54.370;10.132;2023-07-02T06:04:29;11.55;;;4.20;;
13252;SDS011;6693;54.370;10.132;2023-07-02T06:05:32;14.43;;;3.65;;
13252;SDS011;6693;54.370;10.132;2023-07-02T06:06:36;12.48;;;3.20;;
13252;SDS011;6693;54.370;10.132;2023-07-02T06:07:36;11.68;;;3.17;;
13252;SDS011;6693;54.370;10.132;2023-07-02T06:08:39;12.48;;;3.53;;
13252;SDS011;6693;54.370;10.132;2023-07-02T06:09:40;11.73;;;4.38;;
13252;SDS011;6693;54.370;10.132;2023-07-02T06:10:45;15.32;;;4.93;;
13252;SDS011;6693;54.370;10.132;2023-07-02T06:11:46;13.98;;;3.65;;
13252;SDS011;6693;54.370;10.132;2023-07-02T06:12:49;11.57;;;3.80;;